Time;durP1;ratioP1;P1;durP2;ratioP2;P2;SDS_P1;SDS_P2;PMS_P1;PMS_P2;Temp;Humidity;BMP_temperature;BMP_pressure;BME280_temperature;BME280_humidity;BME280_pressure;Samples;Min_cycle;Max_cycle;Signal;HPM_P1;HPM_P2
2021/08/23 00:09:41;;;;;;;0.43;0.43;;;;;;;17.19;67.47;101323.75;4955544;28;20050;-78
2021/08/23 00:26:34;;;;;;;0.60;0.60;;;;;;;17.27;67.26;101320.38;4973202;28;20190;-77
2021/08/23 00:30:10;;;;;;;;;;;;;;;;;;;;;
2021/08/23 00:33:07;;;;;;;;;;;;;;;;;;;;;
2021/08/23 00:37:05;;;;;;;;;;;;;;;;;;;;;
2021/08/23 00:40:30;;;;;;;;;;;;;;;;;;;;;
2021/08/23 00:43:41;;;;;;;1.40;1.30;;;;;;;16.97;66.73;101291.06;4843430;29;20101;-77
2021/08/23 00:46:10;;;;;;;1.10;1.02;;;;;;;17.17;67.53;101323.25;4817965;29;20038;-76
2021/08/23 00:49:08;;;;;;;;;;;;;;;;;;;;;
2021/08/23 00:55:29;;;;;;;;;;;;;;;;;;;;;
2021/08/23 00:58:54;;;;;;;0.70;0.70;;;;;;;17.07;67.38;101301.22;4826650;29;20121;-77
2021/08/23 01:01:47;;;;;;;1.27;1.17;;;;;;;17.07;66.95;101306.75;4812131;29;20050;-77
2021/08/23 01:09:06;;;;;;;;;;;;;;;;;;;;;
2021/08/23 01:12:04;;;;;;;0.77;0.77;;;;;;;17.12;67.00;101303.91;4933120;29;20582;-76
2021/08/23 01:14:42;;;;;;;0.90;0.90;;;;;;;17.28;67.07;101330.31;4973487;28;20046;-77
2021/08/23 01:17:47;;;;;;;;;;;;;;;;;;;;;
2021/08/23 01:24:21;;;;;;;1.25;1.23;;;;;;;17.31;66.85;101325.34;4941693;29;20155;-77
2021/08/23 01:27:21;;;;;;;;;;;;;;;;;;;;;
2021/08/23 01:30:09;;;;;;;1.63;1.38;;;;;;;17.26;66.91;101335.31;4961330;28;20118;-77
2021/08/23 01:36:05;;;;;;;2.28;1.73;;;;;;;17.06;67.33;101316.94;4962732;28;20169;-78
2021/08/23 01:39:32;;;;;;;1.02;1.02;;;;;;;17.15;67.33;101336.50;4992328;28;20107;-75
2021/08/23 01:42:09;;;;;;;1.13;1.13;;;;;;;17.01;67.27;101330.81;4929110;28;20084;-75
2021/08/23 01:44:42;;;;;;;1.48;1.38;;;;;;;16.95;67.13;101320.88;4978678;28;20053;-74
2021/08/23 01:47:39;;;;;;;1.15;1.15;;;;;;;17.01;67.36;101338.25;5016519;28;20034;-77
2021/08/23 01:54:42;;;;;;;1.42;1.13;;;;;;;16.96;67.28;101330.84;4863553;29;20095;-79
2021/08/23 02:04:41;;;;;;;;;;;;;;;;;;;;;
2021/08/23 02:12:00;;;;;;;1.00;1.00;;;;;;;16.69;67.94;101350.56;5004157;28;20060;-78
2021/08/23 02:17:53;;;;;;;1.63;1.55;;;;;;;16.62;67.89;101344.53;4989511;28;20041;-79
2021/08/23 02:24:55;;;;;;;;;;;;;;;;;;;;;
2021/08/23 02:28:05;;;;;;;1.92;1.83;;;;;;;16.27;68.44;101316.84;4916733;29;20447;-76
2021/08/23 02:31:08;;;;;;;1.90;1.80;;;;;;;16.42;68.67;101346.31;4915459;29;20043;-79
2021/08/23 02:33:55;;;;;;;2.50;1.33;;;;;;;16.37;68.53;101347.16;4905637;29;20196;-77
2021/08/23 02:58:52;;;;;;;3.05;1.70;;;;;;;16.14;69.32;101356.91;4747940;29;20055;-79
2021/08/23 03:01:19;;;;;;;1.67;1.58;;;;;;;16.04;69.37;101357.75;4846136;28;20052;-78
2021/08/23 03:03:49;;;;;;;1.10;1.10;;;;;;;16.11;69.58;101363.00;4991566;28;20041;-77
2021/08/23 03:06:58;;;;;;;1.88;1.77;;;;;;;16.13;69.57;101366.28;4977561;28;20056;-77
2021/08/23 03:09:29;;;;;;;1.20;1.20;;;;;;;15.90;69.02;101334.63;4995915;28;20046;-77
2021/08/23 03:12:30;;;;;;;;;;;;;;;;;;;;;
2021/08/23 03:15:24;;;;;;;;;;;;;;;;;;;;;
2021/08/23 03:18:41;;;;;;;1.08;1.08;;;;;;;16.11;69.59;101371.25;5007324;28;20058;-79
2021/08/23 03:21:29;;;;;;;;;;;;;;;;;;;;;
2021/08/23 03:23:56;;;;;;;1.20;1.20;;;;;;;16.13;69.63;101377.31;5000387;28;20069;-79
2021/08/23 03:26:50;;;;;;;0.80;0.80;;;;;;;16.20;69.45;101383.38;5012794;28;20052;-80
2021/08/23 03:30:21;;;;;;;1.58;1.35;;;;;;;16.36;69.64;101386.91;5007859;28;20026;-78
2021/08/23 03:33:10;;;;;;;;;;;;;;;;;;;;;
2021/08/23 03:36:04;;;;;;;;;;;;;;;;;;;;;
2021/08/23 03:38:29;;;;;;;1.90;1.80;;;;;;;16.53;69.15;101366.44;5013392;28;20034;-77
2021/08/23 03:41:46;;;;;;;;;;;;;;;;;;;;;
2021/08/23 03:45:24;;;;;;;1.50;1.40;;;;;;;16.74;69.03;101358.84;5016465;28;20031;-77
2021/08/23 03:48:12;;;;;;;1.95;0.88;;;;;;;16.97;68.86;101379.47;4949140;29;20067;-78
2021/08/23 03:50:38;;;;;;;0.90;0.90;;;;;;;17.06;68.57;101390.75;4941916;28;20042;-75
2021/08/23 03:53:31;;;;;;;1.05;1.05;;;;;;;17.13;68.23;101380.19;5006586;28;20090;-77
2021/08/23 03:55:56;;;;;;;0.95;0.95;;;;;;;17.27;68.39;101396.94;5009296;28;20026;-77
2021/08/23 03:58:56;;;;;;;;;;;;;;;;;;;;;
2021/08/23 04:01:55;;;;;;;;;;;;;;;;;;;;;
2021/08/23 04:26:45;;;;;;;2.45;2.25;;;;;;;17.42;68.26;101407.03;4747000;30;20145;-79
2021/08/23 04:29:22;;;;;;;3.47;3.10;;;;;;;17.26;68.02;101382.31;4738164;30;20045;-78
2021/08/23 04:32:33;;;;;;;;;;;;;;;;;;;;;
2021/08/23 04:42:21;;;;;;;1.83;1.80;;;;;;;17.20;67.94;101389.00;4748502;29;20036;-79
2021/08/23 04:51:45;;;;;;;;;;;;;;;;;;;;;
2021/08/23 05:08:00;;;;;;;;;;;;;;;;;;;;;
2021/08/23 05:10:31;;;;;;;2.72;2.63;;;;;;;17.60;67.71;101430.44;4835485;29;20253;-78
2021/08/23 05:16:37;;;;;;;1.33;1.33;;;;;;;17.58;67.41;101425.19;4809864;29;20038;-78
2021/08/23 05:19:24;;;;;;;2.40;2.20;;;;;;;17.73;67.90;101434.47;4794978;29;20038;-77
2021/08/23 05:22:09;;;;;;;1.60;1.50;;;;;;;17.61;67.24;101427.38;4838791;29;20041;-76
2021/08/23 05:25:09;;;;;;;1.83;1.73;;;;;;;17.73;67.70;101459.38;4867894;29;20521;-78
2021/08/23 05:27:55;;;;;;;2.25;1.85;;;;;;;17.53;67.54;101441.81;4884008;29;20123;-75
2021/08/23 05:30:29;;;;;;;2.95;1.55;;;;;;;17.54;68.00;101465.59;4922284;29;20036;-77
2021/08/23 05:32:55;;;;;;;1.70;1.60;;;;;;;17.33;67.41;101448.31;4909659;29;20048;-76
2021/08/23 05:35:32;;;;;;;0.90;0.88;;;;;;;17.39;67.53;101462.91;4912193;29;20039;-79
2021/08/23 05:37:57;;;;;;;1.85;1.75;;;;;;;17.19;67.77;101439.84;4981855;28;20054;-77
2021/08/23 05:40:39;;;;;;;1.73;1.63;;;;;;;17.22;68.10;101463.31;5009723;28;20053;-77
2021/08/23 05:43:17;;;;;;;;;;;;;;;;;;;;;
2021/08/23 05:46:33;;;;;;;4.15;1.70;;;;;;;17.06;67.85;101455.09;5005753;28;20089;-78
2021/08/23 05:53:36;;;;;;;2.55;2.03;;;;;;;17.17;68.65;101477.16;4943355;29;20055;-79
2021/08/23 06:00:07;;;;;;;;;;;;;;;;;;;;;
2021/08/23 06:02:43;;;;;;;2.90;2.35;;;;;;;17.27;68.62;101466.88;4836636;29;20672;-79
2021/08/23 06:08:50;;;;;;;2.20;2.10;;;;;;;17.56;68.45;101479.94;4888983;29;20045;-78
2021/08/23 06:12:02;;;;;;;2.20;1.55;;;;;;;17.71;68.45;101503.06;4900759;29;20043;-80
2021/08/23 06:14:53;;;;;;;1.50;1.40;;;;;;;17.72;68.45;101494.50;4997569;28;20054;-80
2021/08/23 06:17:39;;;;;;;1.88;1.77;;;;;;;17.84;68.09;101491.34;4988916;28;20030;-82
2021/08/23 06:20:27;;;;;;;2.40;2.25;;;;;;;17.90;68.18;101476.41;5024106;28;20038;-81
2021/08/23 06:23:34;;;;;;;2.10;2.00;;;;;;;18.05;67.73;101497.56;5009757;28;20026;-78
2021/08/23 06:26:06;;;;;;;2.72;2.53;;;;;;;17.94;67.68;101469.16;4964658;28;20030;-79
2021/08/23 06:28:53;;;;;;;2.10;2.00;;;;;;;18.23;67.52;101511.81;4994597;28;20049;-80
2021/08/23 06:31:44;;;;;;;3.30;2.58;;;;;;;18.22;67.97;101491.59;5013367;28;20029;-79
2021/08/23 06:37:50;;;;;;;2.53;1.58;;;;;;;18.52;67.33;101505.44;4974505;28;20037;-81
2021/08/23 06:40:23;;;;;;;2.13;2.03;;;;;;;18.62;67.09;101508.91;4965568;28;20518;-77
2021/08/23 06:42:51;;;;;;;2.17;2.08;;;;;;;18.53;67.30;101485.75;4986115;28;20049;-79
2021/08/23 06:45:25;;;;;;;4.00;3.15;;;;;;;18.74;67.11;101507.69;5026065;28;20098;-77
2021/08/23 06:47:54;;;;;;;3.38;2.42;;;;;;;18.71;67.01;101488.88;5030875;28;20026;-78
2021/08/23 06:50:20;;;;;;;2.95;2.67;;;;;;;18.71;66.94;101480.56;5025736;28;20024;-77
2021/08/23 07:00:20;;;;;;;;;;;;;;;;;;;;;
2021/08/23 07:03:53;;;;;;;;;;;;;;;;;;;;;
2021/08/23 07:11:30;;;;;;;1.88;1.77;;;;;;;19.41;64.82;101510.44;4901529;29;20040;-78
2021/08/23 07:18:04;;;;;;;;;;;;;;;;;;;;;
2021/08/23 07:42:08;;;;;;;1.85;1.73;;;;;;;20.38;61.30;101555.25;4765188;29;20098;-79
2021/08/23 07:44:34;;;;;;;2.47;2.38;;;;;;;20.33;60.48;101552.56;4761751;29;20047;-79
2021/08/23 07:47:02;;;;;;;1.50;1.42;;;;;;;20.39;60.84;101562.44;4861427;28;20139;-77
2021/08/23 07:49:33;;;;;;;1.95;1.85;;;;;;;20.35;60.36;101553.06;4984773;28;20100;-78
2021/08/23 07:51:59;;;;;;;2.10;1.75;;;;;;;20.37;59.91;101559.16;5016420;28;20030;-79
2021/08/23 07:54:24;;;;;;;1.90;1.80;;;;;;;20.33;59.86;101552.56;4986335;28;20083;-80
2021/08/23 07:56:50;;;;;;;2.03;1.92;;;;;;;20.43;59.98;101559.91;4996772;28;21066;-75
2021/08/23 07:59:16;;;;;;;1.90;1.80;;;;;;;20.46;59.69;101556.50;5012462;28;20057;-77
2021/08/23 08:01:42;;;;;;;1.45;1.42;;;;;;;20.52;59.71;101566.38;4963568;28;20985;-77
2021/08/23 08:04:08;;;;;;;1.60;1.50;;;;;;;20.51;59.20;101569.47;4960813;28;20030;-80
2021/08/23 08:06:33;;;;;;;2.30;2.17;;;;;;;20.46;59.60;101578.72;4979074;28;20110;-76
2021/08/23 08:08:59;;;;;;;1.73;1.63;;;;;;;20.41;59.00;101581.59;4973396;28;20029;-78
2021/08/23 08:11:25;;;;;;;1.75;1.65;;;;;;;20.34;59.53;101576.44;4970239;28;20554;-77
2021/08/23 08:13:55;;;;;;;1.63;1.40;;;;;;;20.36;59.42;101585.28;4996626;28;20077;-80
2021/08/23 08:16:21;;;;;;;1.63;1.52;;;;;;;20.38;59.21;101582.19;4992040;28;20053;-78
2021/08/23 08:18:47;;;;;;;2.10;2.00;;;;;;;20.43;59.11;101589.63;4994293;28;20026;-76
2021/08/23 08:21:20;;;;;;;1.35;1.35;;;;;;;20.43;58.85;101589.63;4998316;28;20038;-79
2021/08/23 08:23:45;;;;;;;2.22;2.05;;;;;;;20.33;59.05;101583.13;5011352;28;20044;-76
2021/08/23 08:26:11;;;;;;;2.05;1.95;;;;;;;20.34;59.26;101586.72;4974785;28;20042;-76
2021/08/23 08:28:37;;;;;;;1.73;1.63;;;;;;;20.30;59.85;101591.25;5013988;28;20049;-74
2021/08/23 08:31:08;;;;;;;1.92;1.83;;;;;;;20.32;59.26;101588.97;4993571;28;20042;-76
2021/08/23 08:33:34;;;;;;;2.55;2.42;;;;;;;20.31;58.95;101588.16;5011676;28;20073;-77
2021/08/23 08:36:00;;;;;;;2.33;2.22;;;;;;;20.33;58.98;101597.00;5002292;28;20025;-77
2021/08/23 08:38:26;;;;;;;2.25;2.15;;;;;;;20.32;58.97;101592.56;4961442;28;20026;-76
2021/08/23 08:41:02;;;;;;;2.50;2.35;;;;;;;20.36;58.84;101601.94;4990497;28;20422;-77
2021/08/23 08:43:28;;;;;;;2.03;1.92;;;;;;;20.36;58.38;101604.72;4991431;28;20102;-76
2021/08/23 08:45:58;;;;;;;1.58;1.55;;;;;;;20.38;58.93;101598.88;4968645;28;20038;-77
2021/08/23 08:48:26;;;;;;;1.60;1.60;;;;;;;20.56;59.07;101611.06;5010882;28;20038;-76
2021/08/23 08:50:52;;;;;;;1.30;1.30;;;;;;;20.65;58.89;101592.56;4977490;28;20551;-76
2021/08/23 08:53:23;;;;;;;1.75;1.02;;;;;;;20.83;58.93;101601.16;5002933;28;20031;-77
2021/08/23 08:55:51;;;;;;;1.48;1.38;;;;;;;20.93;58.33;101598.19;4983915;28;20042;-76
2021/08/23 08:58:22;;;;;;;0.82;0.82;;;;;;;21.06;58.00;101605.69;4966896;28;20048;-76
2021/08/23 09:00:54;;;;;;;0.70;0.70;;;;;;;21.08;58.25;101595.09;5000642;28;20041;-77
2021/08/23 09:03:27;;;;;;;3.38;1.90;;;;;;;20.99;57.64;101594.16;5001817;28;20034;-77
2021/08/23 09:06:04;;;;;;;2.33;1.05;;;;;;;21.12;57.62;101611.16;5006077;28;20037;-76
2021/08/23 09:08:30;;;;;;;1.20;1.20;;;;;;;21.15;57.50;101616.13;4993945;28;20050;-76
2021/08/23 09:11:12;;;;;;;7.78;0.70;;;;;;;21.23;57.73;101596.75;4982709;28;20050;-74
2021/08/23 09:13:39;;;;;;;1.05;0.90;;;;;;;21.42;57.31;101599.41;4998828;28;20028;-75
2021/08/23 09:16:07;;;;;;;1.50;0.98;;;;;;;21.68;56.38;101609.97;4989759;28;20023;-75
2021/08/23 09:18:34;;;;;;;1.10;0.93;;;;;;;21.75;55.10;101610.38;5011168;28;20073;-77
2021/08/23 09:21:07;;;;;;;3.15;1.00;;;;;;;21.85;54.95;101600.97;4992030;28;20026;-76
2021/08/23 09:23:33;;;;;;;0.70;0.70;;;;;;;21.94;54.67;101612.19;4975761;28;20064;-78
2021/08/23 09:26:43;;;;;;;0.60;0.60;;;;;;;22.10;55.22;101613.47;5006729;28;20029;-77
2021/08/23 09:29:22;;;;;;;1.13;0.60;;;;;;;22.08;53.89;101604.59;5002239;28;20022;-76
2021/08/23 09:31:58;;;;;;;0.57;0.50;;;;;;;22.23;53.75;101610.94;5013007;28;20034;-76
2021/08/23 09:34:27;;;;;;;0.65;0.65;;;;;;;22.26;53.99;101608.34;4979965;28;20452;-74
2021/08/23 09:36:59;;;;;;;0.88;0.88;;;;;;;22.36;52.92;101615.66;4998643;28;20532;-75
2021/08/23 09:39:31;;;;;;;0.60;0.47;;;;;;;22.32;53.35;101614.63;5010632;28;20037;-75
2021/08/23 09:42:09;;;;;;;0.50;0.50;;;;;;;22.43;53.19;101626.38;4990001;28;20044;-74
2021/08/23 09:44:37;;;;;;;0.55;0.55;;;;;;;22.41;53.15;101623.06;4973797;28;20120;-73
2021/08/23 09:47:03;;;;;;;0.95;0.75;;;;;;;22.36;53.00;101615.66;4992803;28;20022;-75
2021/08/23 09:49:49;;;;;;;0.40;0.40;;;;;;;22.45;53.11;101622.09;4972265;28;20033;-75
2021/08/23 09:52:29;;;;;;;0.50;0.50;;;;;;;22.51;53.13;101621.97;5004795;28;20034;-74
2021/08/23 09:55:20;;;;;;;0.45;0.43;;;;;;;22.54;52.83;101621.34;4997832;28;20045;-75
2021/08/23 10:05:54;;;;;;;0.50;0.50;;;;;;;22.29;52.33;101607.69;2906041;26;20042;-74
2021/08/23 10:08:29;;;;;;;2.60;0.68;;;;;;;22.45;52.35;101627.66;5017857;28;20110;-77
2021/08/23 10:11:54;;;;;;;0.65;0.65;;;;;;;22.49;52.21;101613.94;5016637;28;20030;-76
2021/08/23 10:14:38;;;;;;;0.40;0.40;;;;;;;22.73;51.82;101635.88;4994142;28;20029;-75
2021/08/23 10:17:23;;;;;;;;;;;;;;;;;;;;;
2021/08/23 10:20:14;;;;;;;0.60;0.60;;;;;;;22.93;52.01;101633.69;5016240;28;20086;-76
2021/08/23 10:26:39;;;;;;;;;;;;;;;;;;;;;
2021/08/23 10:32:40;;;;;;;0.45;0.45;;;;;;;23.18;50.57;101607.06;5013522;28;20034;-76
2021/08/23 10:35:56;;;;;;;;;;;;;;;;;;;;;
2021/08/23 10:45:50;;;;;;;;;;;;;;;;;;;;;
2021/08/23 10:48:23;;;;;;;0.55;0.55;;;;;;;23.63;49.61;101637.56;5015652;28;20410;-77
2021/08/23 11:05:09;;;;;;;0.65;0.65;;;;;;;23.70;49.14;101631.50;4995224;28;20036;-76
2021/08/23 11:07:49;;;;;;;0.70;0.70;;;;;;;23.75;48.97;101648.06;4918935;29;20055;-76
2021/08/23 11:10:30;;;;;;;0.60;0.60;;;;;;;23.65;48.66;101642.81;4922660;28;20466;-76
2021/08/23 11:16:25;;;;;;;3.55;0.95;;;;;;;23.55;48.54;101637.53;4906646;29;20057;-72
2021/08/23 11:18:51;;;;;;;0.85;0.77;;;;;;;23.55;48.20;101655.09;5015108;28;20045;-75
2021/08/23 11:22:01;;;;;;;0.60;0.60;;;;;;;23.55;48.80;101654.28;4983392;28;20027;-76
2021/08/23 11:25:26;;;;;;;;;;;;;;;;;;;;;
2021/08/23 11:28:25;;;;;;;;;;;;;;;;;;;;;
2021/08/23 11:34:36;;;;;;;1.40;1.17;;;;;;;23.40;48.75;101659.16;4948777;28;20144;-76
2021/08/23 11:40:36;;;;;;;;;;;;;;;23.43;49.10;101655.72;4947914;28;20035;-76
2021/08/23 11:43:03;;;;;;;0.60;0.50;;;;;;;23.38;49.68;101650.31;4979328;28;19937;-75
2021/08/23 11:45:38;;;;;;;0.40;0.40;;;;;;;23.51;49.63;101640.97;4957418;28;20046;-77
2021/08/23 11:48:04;;;;;;;0.57;0.57;;;;;;;23.64;48.83;101646.75;4974569;28;20492;-75
2021/08/23 11:56:03;;;;;;;0.40;0.40;;;;;;;23.79;48.55;101654.66;3334034;22;20054;-76
2021/08/23 11:58:36;;;;;;;0.70;0.70;;;;;;;23.74;48.13;101657.59;5017501;28;20028;-76
2021/08/23 12:01:06;;;;;;;0.50;0.50;;;;;;;23.66;48.05;101653.66;5018169;28;20018;-77
2021/08/23 12:03:33;;;;;;;1.50;0.50;;;;;;;23.62;47.32;101654.63;5002654;28;20026;-76
2021/08/23 12:06:11;;;;;;;0.40;0.40;;;;;;;23.62;47.87;101655.44;5001603;28;20030;-76
2021/08/23 12:08:41;;;;;;;0.43;0.43;;;;;;;23.51;48.12;101652.16;5000023;28;20040;-76
2021/08/23 12:11:24;;;;;;;1.77;0.70;;;;;;;23.44;48.22;101646.22;4995895;28;20034;-78
2021/08/23 12:13:57;;;;;;;0.75;0.50;;;;;;;23.42;48.51;101656.03;4996983;28;20037;-76
2021/08/23 12:16:53;;;;;;;0.30;0.20;;;;;;;23.49;48.95;101657.22;4987698;28;20022;-75
2021/08/23 14:37:21;;;;;;;0.30;0.30;;;;;;;25.22;44.49;101636.22;5016937;28;19917;-81
2021/08/23 14:40:13;;;;;;;0.35;0.35;;;;;;;25.19;45.26;101634.91;4988088;28;20030;-80
2021/08/23 14:42:50;;;;;;;0.28;0.28;;;;;;;25.22;44.43;101641.81;5019543;28;20095;-82
2021/08/23 14:45:23;;;;;;;0.52;0.30;;;;;;;25.16;44.46;101621.59;4983772;28;20022;-79
2021/08/23 14:48:14;;;;;;;0.22;0.22;;;;;;;25.42;45.30;101634.63;4972102;28;20045;-75
2021/08/23 14:51:00;;;;;;;4.22;0.40;;;;;;;25.56;45.06;101621.22;4974689;28;20049;-79
2021/08/23 14:53:36;;;;;;;;;;;;;;;;;;;;;
2021/08/23 14:56:02;;;;;;;0.82;0.60;;;;;;;26.85;46.38;101631.97;5001128;28;20089;-79
2021/08/23 14:58:28;;;;;;;0.63;0.30;;;;;;;28.96;45.81;101642.34;4997042;28;20037;-76
2021/08/23 15:00:53;;;;;;;0.30;0.30;;;;;;;31.27;43.80;101644.34;4999460;28;20497;-79
2021/08/23 15:03:19;;;;;;;0.20;0.20;;;;;;;33.43;41.11;101644.00;4994205;28;20030;-78
2021/08/23 15:05:51;;;;;;;0.17;0.10;;;;;;;35.37;39.43;101648.63;4998466;28;20493;-79
2021/08/23 15:08:17;;;;;;;0.00;0.00;;;;;;;37.18;37.23;101652.22;4994563;28;20042;-80
2021/08/23 15:10:54;;;;;;;0.10;0.10;;;;;;;37.30;34.12;101651.69;4986073;28;20031;-78
2021/08/23 15:13:22;;;;;;;0.20;0.20;;;;;;;36.29;32.44;101643.88;4980849;28;20018;-78
2021/08/23 15:16:09;;;;;;;0.13;0.13;;;;;;;35.32;32.95;101643.38;4991301;28;20078;-80
2021/08/23 15:18:44;;;;;;;0.10;0.10;;;;;;;34.26;33.37;101627.41;5003251;28;20488;-77
2021/08/23 15:21:12;;;;;;;0.10;0.10;;;;;;;33.96;34.13;101642.69;4983281;28;20030;-79
2021/08/23 15:23:53;;;;;;;0.20;0.20;;;;;;;34.30;33.26;101630.28;4981883;28;20031;-78
2021/08/23 15:26:20;;;;;;;0.20;0.20;;;;;;;34.43;32.74;101625.84;4995528;28;20023;-77
2021/08/23 15:29:06;;;;;;;0.10;0.10;;;;;;;35.49;32.92;101645.38;5008184;28;20026;-80
2021/08/23 15:31:37;;;;;;;0.22;0.20;;;;;;;36.19;31.88;101636.19;5000584;28;20049;-78
2021/08/23 15:34:03;;;;;;;0.20;0.10;;;;;;;37.20;30.69;101630.56;4986417;28;20109;-79
2021/08/23 15:36:29;;;;;;;0.00;0.00;;;;;;;38.27;29.55;101635.47;4953959;28;20525;-79
2021/08/23 15:39:02;;;;;;;0.20;0.20;;;;;;;38.71;28.31;101639.34;4983375;28;20034;-77
2021/08/23 15:41:27;;;;;;;0.25;0.20;;;;;;;38.92;27.23;101632.44;4977405;28;20029;-76
2021/08/23 15:44:25;;;;;;;0.20;0.20;;;;;;;38.40;26.67;101624.28;4964128;28;20030;-78
2021/08/23 15:46:42;;;;;;;0.30;0.20;;;;;;;37.53;27.28;101611.09;4982239;28;20035;-78
2021/08/23 15:49:11;;;;;;;0.25;0.25;;;;;;;37.84;27.06;101621.78;4985703;28;20053;-77
2021/08/23 15:51:58;;;;;;;0.15;0.10;;;;;;;38.35;27.12;101625.56;4988171;28;20050;-81
2021/08/23 15:54:31;;;;;;;0.10;0.10;;;;;;;38.95;26.60;101625.06;4943386;28;20045;-77
2021/08/23 15:57:01;;;;;;;0.10;0.10;;;;;;;39.22;26.03;101627.84;4978834;28;20058;-74
2021/08/23 15:59:26;;;;;;;0.43;0.20;;;;;;;38.68;25.34;101605.09;4978549;28;20034;-78
2021/08/23 16:01:52;;;;;;;0.15;0.10;;;;;;;38.47;25.51;101617.66;4963514;29;20038;-76
2021/08/23 16:04:19;;;;;;;0.13;0.10;;;;;;;37.92;25.54;101620.44;4977237;28;20046;-75
2021/08/23 16:06:45;;;;;;;0.10;0.10;;;;;;;37.18;26.16;101610.25;4964305;28;20037;-73
2021/08/23 16:09:13;;;;;;;0.15;0.13;;;;;;;37.06;26.54;101607.09;4951524;28;20027;-74
2021/08/23 16:11:38;;;;;;;0.10;0.10;;;;;;;37.74;26.92;101614.97;4980609;28;20030;-75
2021/08/23 16:14:06;;;;;;;0.20;0.20;;;;;;;38.65;25.91;101620.22;4966421;28;20862;-78
2021/08/23 16:16:41;;;;;;;0.00;0.00;;;;;;;39.49;25.50;101598.31;4981934;28;20035;-80
2021/08/23 16:19:57;;;;;;;0.10;0.10;;;;;;;40.35;24.23;101604.25;4977984;28;20023;-74
2021/08/23 18:18:58;;;;;;;0.60;0.25;;;;;;;30.91;26.25;101567.47;5012820;28;20499;-74
2021/08/23 18:21:24;;;;;;;0.28;0.20;;;;;;;30.71;26.59;101569.56;5010726;28;20041;-73
2021/08/23 18:23:52;;;;;;;0.10;0.10;;;;;;;30.45;26.99;101569.13;4994227;28;20054;-72
2021/08/23 22:54:46;;;;;;;0.55;0.43;;;;;;;16.57;54.15;101691.41;5037202;23;20049;-77
2021/08/23 22:57:17;;;;;;;0.40;0.40;;;;;;;16.53;54.00;101679.25;4996581;28;20058;-73
2021/08/23 22:59:50;;;;;;;0.20;0.20;;;;;;;16.48;53.89;101681.16;5013366;28;20058;-75
2021/08/23 23:02:18;;;;;;;0.30;0.30;;;;;;;16.57;54.42;101691.41;5017296;28;20026;-75
2021/08/23 23:04:44;;;;;;;0.40;0.40;;;;;;;16.49;54.48;101678.13;5020822;28;20092;-75
2021/08/23 23:07:09;;;;;;;1.08;0.82;;;;;;;16.56;54.84;101705.47;5024089;28;20036;-75
2021/08/23 23:10:16;;;;;;;0.40;0.40;;;;;;;16.57;54.39;101696.91;5002334;28;20031;-77
2021/08/23 23:12:45;;;;;;;0.50;0.50;;;;;;;16.47;54.81;101685.88;5019402;28;20038;-79
2021/08/23 23:15:13;;;;;;;0.40;0.32;;;;;;;16.41;55.01;101681.44;5023426;28;20146;-75
2021/08/23 23:17:44;;;;;;;0.73;0.30;;;;;;;16.46;55.15;101694.44;5019658;28;20041;-76
2021/08/23 23:20:21;;;;;;;0.35;0.30;;;;;;;16.41;55.14;101709.03;5024831;28;20017;-77
2021/08/23 23:23:22;;;;;;;0.35;0.30;;;;;;;16.28;55.27;101690.25;5018221;28;20034;-78
2021/08/23 23:25:48;;;;;;;0.32;0.30;;;;;;;16.34;55.92;101700.19;5026096;28;20121;-78
2021/08/23 23:28:16;;;;;;;0.52;0.40;;;;;;;16.21;55.69;101685.81;5018473;28;20499;-78
2021/08/23 23:30:52;;;;;;;;;;;;;;;;;;;;;
2021/08/23 23:33:20;;;;;;;0.50;0.50;;;;;;;16.20;56.20;101700.72;5017748;28;20534;-75
2021/08/23 23:35:46;;;;;;;0.50;0.50;;;;;;;16.22;56.43;101706.81;5022135;28;20042;-76
2021/08/23 23:38:44;;;;;;;0.35;0.35;;;;;;;16.12;56.08;101709.56;5026920;28;20057;-74
2021/08/23 23:42:06;;;;;;;0.30;0.30;;;;;;;16.14;56.37;101712.84;5007397;28;20056;-75
2021/08/23 23:47:28;;;;;;;0.30;0.30;;;;;;;15.95;56.77;101700.69;5020027;28;20060;-74
2021/08/23 23:49:55;;;;;;;0.32;0.30;;;;;;;15.95;56.60;101706.19;5025729;28;20062;-75
2021/08/23 23:52:22;;;;;;;0.80;0.57;;;;;;;15.83;57.29;101698.97;5016543;28;20033;-73
2021/08/23 23:54:49;;;;;;;0.45;0.45;;;;;;;15.83;57.26;101698.97;4983736;28;20081;-76
2021/08/23 23:57:16;;;;;;;0.80;0.30;;;;;;;15.82;57.04;101718.56;5001043;28;20038;-74
2021/08/23 23:59:42;;;;;;;0.38;0.30;;;;;;;15.76;57.42;101711.34;5004258;28;20104;-74
